עמוד ראשי
METAR-TAF:

METAR-TAF

שדות תעופה :

קיריטימטי, קיריבטי

קו רוחב: 01-59N, קו אורך: 157-29W, גובה: 3מטר

תצפית מזג אוויר נוכחית

הדו"ח נערך לפני 2 שעות ו 12דקות, בשעה 10:00 UTC
רוח 4קשר מכיוון מזרח
טמפרטורת 28 צלסיוס
לחות 74%
לחץ 1010 hPa
ראות 10 קילומטר או יותר
מעט עננים בגובה 2000רגל
עננים פזורים בגובה 30000רגל

METAR: PLCH 151000Z 09004KT 9999 FEW020 SCT300 28/23 Q1010

זמן: 02:12 (12:12 UTC)

תחזית

הדו"ח נערך לפני 1 שעות ו 8דקות, בשעה 11:04 UTC
תחזית בתוקף מ 15 ב 12 UTC עד 16 ב 12 UTC
רוח 6קשר מכיוון מזרח
ראות 10 קילומטר או יותר
מעט עננים בגובה 2000רגל
עננים פזורים בגובה 10000רגל

TAF: PLCH 151104Z 1512/1612 09006KT 9999 FEW020 SCT100

תצפיות ותחזיות מזג אוויר לגבי יותר מ- 4,000 שדות תעופה ברחבי העולם. דוחות METAR ו- TAF.

התחנות הזמינות מסומנות בנקודות צהובות ואדומות על גבי המפה.

העבר את העכבר לנקודה הצבעונית על מנת לראות את שם התחנה.

לאחר מכן, לחץ כדי לראות את תוכן ואת תחזיות מזג האוויר.

כדי לשנות את המפה: לחץ על הכפתורים הירוקים עם הפלוס השחור כדי להתקרב; על הכפתור הירוק עם המקף כדי להתרחק; או בחיצים הירוקים למפות סמוכות.


METAR-TAF: